sensor_id;sensor_type;location;lat;lon;timestamp;pressure;altitude;pressure_sealevel;temperature;humidity
9538;BME280;4807;48.024;11.726;2023-03-11T00:00:54;93658.25;;;1.51;75.51
9538;BME280;4807;48.024;11.726;2023-03-11T00:04:03;93667.56;;;1.53;73.38
9538;BME280;4807;48.024;11.726;2023-03-11T00:07:12;93674.00;;;1.66;71.78
9538;BME280;4807;48.024;11.726;2023-03-11T00:10:24;93673.75;;;1.75;69.16
9538;BME280;4807;48.024;11.726;2023-03-11T00:13:36;93654.84;;;1.80;68.26
9538;BME280;4807;48.024;11.726;2023-03-11T00:16:46;93684.81;;;1.85;67.17
9538;BME280;4807;48.024;11.726;2023-03-11T00:19:55;93667.44;;;1.84;65.43
9538;BME280;4807;48.024;11.726;2023-03-11T00:23:06;93703.59;;;1.74;66.84
9538;BME280;4807;48.024;11.726;2023-03-11T00:26:14;93687.38;;;1.71;64.07
9538;BME280;4807;48.024;11.726;2023-03-11T00:29:23;93688.81;;;1.59;66.95
9538;BME280;4807;48.024;11.726;2023-03-11T00:32:32;93694.03;;;1.44;66.70
9538;BME280;4807;48.024;11.726;2023-03-11T00:35:41;93696.66;;;1.44;66.80
9538;BME280;4807;48.024;11.726;2023-03-11T00:38:50;93703.34;;;1.24;68.21
9538;BME280;4807;48.024;11.726;2023-03-11T00:41:59;93701.16;;;1.12;67.23
9538;BME280;4807;48.024;11.726;2023-03-11T00:45:07;93703.78;;;1.35;65.81
9538;BME280;4807;48.024;11.726;2023-03-11T00:48:17;93712.84;;;1.25;66.88
9538;BME280;4807;48.024;11.726;2023-03-11T00:51:26;93711.91;;;1.18;67.05
9538;BME280;4807;48.024;11.726;2023-03-11T00:54:35;93704.72;;;1.20;65.88
9538;BME280;4807;48.024;11.726;2023-03-11T00:57:44;93737.44;;;1.24;65.77
9538;BME280;4807;48.024;11.726;2023-03-11T01:00:53;93737.44;;;1.24;65.33
9538;BME280;4807;48.024;11.726;2023-03-11T01:04:03;93744.31;;;1.25;66.00
9538;BME280;4807;48.024;11.726;2023-03-11T01:07:11;93738.91;;;1.26;65.97
9538;BME280;4807;48.024;11.726;2023-03-11T01:10:19;93745.50;;;1.45;63.61
9538;BME280;4807;48.024;11.726;2023-03-11T01:13:29;93741.53;;;1.49;63.98
9538;BME280;4807;48.024;11.726;2023-03-11T01:16:37;93742.44;;;1.56;63.03
9538;BME280;4807;48.024;11.726;2023-03-11T01:19:48;93741.13;;;1.60;63.35
9538;BME280;4807;48.024;11.726;2023-03-11T01:22:57;93732.59;;;1.58;62.66
9538;BME280;4807;48.024;11.726;2023-03-11T01:26:07;93735.81;;;1.45;64.09
9538;BME280;4807;48.024;11.726;2023-03-11T01:29:15;93732.66;;;1.50;63.92
9538;BME280;4807;48.024;11.726;2023-03-11T01:32:24;93736.66;;;1.46;63.97
9538;BME280;4807;48.024;11.726;2023-03-11T01:35:34;93735.47;;;1.48;65.46
9538;BME280;4807;48.024;11.726;2023-03-11T01:38:42;93741.34;;;1.50;65.33
9538;BME280;4807;48.024;11.726;2023-03-11T01:41:51;93739.72;;;1.49;64.60
9538;BME280;4807;48.024;11.726;2023-03-11T01:44:59;93743.69;;;1.45;65.54
9538;BME280;4807;48.024;11.726;2023-03-11T01:48:09;93746.31;;;1.45;65.21
9538;BME280;4807;48.024;11.726;2023-03-11T01:51:26;93759.88;;;1.49;66.32
9538;BME280;4807;48.024;11.726;2023-03-11T01:54:40;93755.63;;;1.48;64.99
9538;BME280;4807;48.024;11.726;2023-03-11T01:57:50;93750.84;;;1.51;65.84
9538;BME280;4807;48.024;11.726;2023-03-11T02:01:02;93749.09;;;1.44;65.96
9538;BME280;4807;48.024;11.726;2023-03-11T02:04:12;93753.69;;;1.42;65.08
9538;BME280;4807;48.024;11.726;2023-03-11T02:07:22;93755.13;;;1.30;66.42
9538;BME280;4807;48.024;11.726;2023-03-11T02:10:31;93753.47;;;1.29;66.46
9538;BME280;4807;48.024;11.726;2023-03-11T02:13:41;93733.72;;;1.18;67.79
9538;BME280;4807;48.024;11.726;2023-03-11T02:16:50;93734.88;;;1.15;67.78
9538;BME280;4807;48.024;11.726;2023-03-11T02:20:19;93746.53;;;1.13;66.55
9538;BME280;4807;48.024;11.726;2023-03-11T02:23:36;93761.00;;;1.01;67.53
9538;BME280;4807;48.024;11.726;2023-03-11T02:26:54;93758.16;;;0.80;68.88
9538;BME280;4807;48.024;11.726;2023-03-11T02:30:04;93768.44;;;0.89;68.05
9538;BME280;4807;48.024;11.726;2023-03-11T02:33:17;93760.00;;;1.02;67.34
9538;BME280;4807;48.024;11.726;2023-03-11T02:41:43;93758.38;;;1.01;68.35
9538;BME280;4807;48.024;11.726;2023-03-11T02:44:59;93767.00;;;1.09;67.58
9538;BME280;4807;48.024;11.726;2023-03-11T02:48:10;93767.97;;;1.17;68.11
9538;BME280;4807;48.024;11.726;2023-03-11T02:51:19;93748.03;;;1.07;68.31
9538;BME280;4807;48.024;11.726;2023-03-11T02:54:29;93754.59;;;1.03;69.28
9538;BME280;4807;48.024;11.726;2023-03-11T02:57:38;93764.91;;;1.05;68.81
9538;BME280;4807;48.024;11.726;2023-03-11T03:00:47;93769.50;;;1.03;68.66
9538;BME280;4807;48.024;11.726;2023-03-11T03:03:57;93771.34;;;0.94;67.69
9538;BME280;4807;48.024;11.726;2023-03-11T03:07:09;93775.25;;;0.98;67.17
9538;BME280;4807;48.024;11.726;2023-03-11T03:10:20;93779.91;;;0.88;68.03
9538;BME280;4807;48.024;11.726;2023-03-11T03:13:29;93790.06;;;0.83;66.98
9538;BME280;4807;48.024;11.726;2023-03-11T03:16:42;93792.69;;;0.83;65.59
9538;BME280;4807;48.024;11.726;2023-03-11T03:19:50;93792.41;;;0.70;66.01
9538;BME280;4807;48.024;11.726;2023-03-11T03:23:00;93800.56;;;0.75;64.97
9538;BME280;4807;48.024;11.726;2023-03-11T03:26:12;93809.75;;;0.79;64.15
9538;BME280;4807;48.024;11.726;2023-03-11T03:29:23;93801.59;;;0.66;64.39
9538;BME280;4807;48.024;11.726;2023-03-11T03:32:34;93810.63;;;0.63;64.48
9538;BME280;4807;48.024;11.726;2023-03-11T03:35:46;93808.66;;;0.57;64.84
9538;BME280;4807;48.024;11.726;2023-03-11T03:38:59;93806.84;;;0.58;63.74
9538;BME280;4807;48.024;11.726;2023-03-11T03:42:12;93793.13;;;0.56;62.80
9538;BME280;4807;48.024;11.726;2023-03-11T03:45:20;93810.81;;;0.46;63.22
9538;BME280;4807;48.024;11.726;2023-03-11T03:48:33;93820.66;;;0.35;63.71
9538;BME280;4807;48.024;11.726;2023-03-11T03:51:44;93823.44;;;0.34;64.78
9538;BME280;4807;48.024;11.726;2023-03-11T03:55:02;93822.81;;;0.24;64.33
9538;BME280;4807;48.024;11.726;2023-03-11T03:58:11;93804.28;;;0.33;63.70
9538;BME280;4807;48.024;11.726;2023-03-11T04:01:22;93801.69;;;0.25;64.66
9538;BME280;4807;48.024;11.726;2023-03-11T04:04:33;93804.66;;;0.22;64.72
9538;BME280;4807;48.024;11.726;2023-03-11T04:07:41;93808.59;;;0.18;64.46
9538;BME280;4807;48.024;11.726;2023-03-11T04:10:56;93820.69;;;0.27;63.57
9538;BME280;4807;48.024;11.726;2023-03-11T04:14:06;93824.44;;;0.25;63.57
9538;BME280;4807;48.024;11.726;2023-03-11T04:17:22;93829.88;;;0.15;64.94
9538;BME280;4807;48.024;11.726;2023-03-11T04:20:33;93823.00;;;0.14;64.24
9538;BME280;4807;48.024;11.726;2023-03-11T04:23:42;93813.00;;;0.18;64.25
9538;BME280;4807;48.024;11.726;2023-03-11T04:26:52;93812.19;;;0.17;64.84
9538;BME280;4807;48.024;11.726;2023-03-11T04:30:01;93810.88;;;0.13;64.16
9538;BME280;4807;48.024;11.726;2023-03-11T04:33:10;93817.09;;;0.04;65.49
9538;BME280;4807;48.024;11.726;2023-03-11T04:36:20;93821.69;;;0.10;65.30
9538;BME280;4807;48.024;11.726;2023-03-11T04:39:30;93825.28;;;-0.07;65.59
9538;BME280;4807;48.024;11.726;2023-03-11T04:42:39;93816.81;;;-0.09;65.30
9538;BME280;4807;48.024;11.726;2023-03-11T04:45:49;93807.97;;;-0.08;65.32
9538;BME280;4807;48.024;11.726;2023-03-11T04:48:58;93814.50;;;-0.04;66.22
9538;BME280;4807;48.024;11.726;2023-03-11T04:52:08;93823.66;;;0.08;64.99
9538;BME280;4807;48.024;11.726;2023-03-11T04:55:17;93818.09;;;0.03;65.16
9538;BME280;4807;48.024;11.726;2023-03-11T04:58:26;93819.72;;;0.12;64.75
9538;BME280;4807;48.024;11.726;2023-03-11T05:01:35;93822.34;;;0.04;64.24
9538;BME280;4807;48.024;11.726;2023-03-11T05:04:46;93827.06;;;0.00;64.94
9538;BME280;4807;48.024;11.726;2023-03-11T05:07:56;93830.88;;;-0.10;65.70
9538;BME280;4807;48.024;11.726;2023-03-11T05:11:05;93836.09;;;-0.10;66.08
9538;BME280;4807;48.024;11.726;2023-03-11T05:14:13;93836.75;;;0.00;65.43
9538;BME280;4807;48.024;11.726;2023-03-11T05:17:22;93839.19;;;0.02;64.97
9538;BME280;4807;48.024;11.726;2023-03-11T05:20:32;93837.72;;;0.07;65.80
9538;BME280;4807;48.024;11.726;2023-03-11T05:23:42;93840.34;;;-0.01;65.25
9538;BME280;4807;48.024;11.726;2023-03-11T05:26:53;93840.66;;;0.12;64.44
9538;BME280;4807;48.024;11.726;2023-03-11T05:30:04;93844.91;;;0.21;64.41
9538;BME280;4807;48.024;11.726;2023-03-11T05:33:15;93851.63;;;0.24;64.25
9538;BME280;4807;48.024;11.726;2023-03-11T05:36:24;93855.06;;;0.24;63.90
9538;BME280;4807;48.024;11.726;2023-03-11T05:39:34;93867.63;;;0.21;64.61
9538;BME280;4807;48.024;11.726;2023-03-11T05:42:44;93870.41;;;0.19;65.27
9538;BME280;4807;48.024;11.726;2023-03-11T05:45:54;93874.69;;;0.12;65.54
9538;BME280;4807;48.024;11.726;2023-03-11T05:49:02;93879.75;;;0.14;65.25
9538;BME280;4807;48.024;11.726;2023-03-11T05:52:11;93875.34;;;0.06;66.05
9538;BME280;4807;48.024;11.726;2023-03-11T05:55:20;93874.50;;;0.22;66.15
9538;BME280;4807;48.024;11.726;2023-03-11T05:58:32;93869.94;;;0.24;66.20
9538;BME280;4807;48.024;11.726;2023-03-11T06:01:41;93862.56;;;0.27;65.30
9538;BME280;4807;48.024;11.726;2023-03-11T06:04:50;93871.25;;;0.20;66.14
9538;BME280;4807;48.024;11.726;2023-03-11T06:07:59;93887.75;;;0.28;65.73
9538;BME280;4807;48.024;11.726;2023-03-11T06:11:10;93883.19;;;0.22;66.41
9538;BME280;4807;48.024;11.726;2023-03-11T06:14:19;93891.69;;;0.16;66.61
9538;BME280;4807;48.024;11.726;2023-03-11T06:17:29;93890.38;;;0.12;65.16
9538;BME280;4807;48.024;11.726;2023-03-11T06:20:38;93898.53;;;0.09;66.11
9538;BME280;4807;48.024;11.726;2023-03-11T06:23:47;93900.53;;;0.07;65.51
9538;BME280;4807;48.024;11.726;2023-03-11T06:26:57;93903.78;;;0.09;65.36
9538;BME280;4807;48.024;11.726;2023-03-11T06:30:10;93913.44;;;0.09;63.29
9538;BME280;4807;48.024;11.726;2023-03-11T06:33:26;93924.91;;;0.08;62.65
9538;BME280;4807;48.024;11.726;2023-03-11T06:36:34;93927.84;;;0.05;62.48
9538;BME280;4807;48.024;11.726;2023-03-11T06:39:42;93925.53;;;0.02;62.54
9538;BME280;4807;48.024;11.726;2023-03-11T06:42:56;93929.31;;;0.07;62.63
9538;BME280;4807;48.024;11.726;2023-03-11T06:46:09;93923.25;;;-0.02;61.99
9538;BME280;4807;48.024;11.726;2023-03-11T06:49:19;93938.28;;;-0.04;61.53
9538;BME280;4807;48.024;11.726;2023-03-11T06:52:28;93933.72;;;-0.02;61.01
9538;BME280;4807;48.024;11.726;2023-03-11T06:55:36;93934.72;;;0.06;60.49
9538;BME280;4807;48.024;11.726;2023-03-11T06:58:46;93946.66;;;0.08;60.97
9538;BME280;4807;48.024;11.726;2023-03-11T07:01:57;93948.94;;;0.27;61.34
9538;BME280;4807;48.024;11.726;2023-03-11T07:05:06;93955.50;;;0.31;61.78
9538;BME280;4807;48.024;11.726;2023-03-11T07:08:14;93960.41;;;0.34;60.19
9538;BME280;4807;48.024;11.726;2023-03-11T07:11:25;93970.38;;;0.23;59.42
9538;BME280;4807;48.024;11.726;2023-03-11T07:14:41;93973.47;;;0.26;59.91
9538;BME280;4807;48.024;11.726;2023-03-11T07:17:50;93975.13;;;0.27;59.77
9538;BME280;4807;48.024;11.726;2023-03-11T07:20:58;93989.16;;;0.10;57.63
9538;BME280;4807;48.024;11.726;2023-03-11T07:24:11;94000.16;;;0.14;58.48
9538;BME280;4807;48.024;11.726;2023-03-11T07:27:20;94006.38;;;0.37;58.28
9538;BME280;4807;48.024;11.726;2023-03-11T07:30:30;94013.59;;;0.75;56.17
9538;BME280;4807;48.024;11.726;2023-03-11T07:33:40;94013.25;;;0.38;57.18
9538;BME280;4807;48.024;11.726;2023-03-11T07:36:48;94018.78;;;0.19;56.37
9538;BME280;4807;48.024;11.726;2023-03-11T07:39:57;94021.28;;;0.45;56.35
9538;BME280;4807;48.024;11.726;2023-03-11T07:43:05;94026.66;;;0.27;55.64
9538;BME280;4807;48.024;11.726;2023-03-11T07:46:16;94023.34;;;0.09;56.97
9538;BME280;4807;48.024;11.726;2023-03-11T07:49:25;94034.88;;;0.32;57.26
9538;BME280;4807;48.024;11.726;2023-03-11T07:52:34;94030.47;;;0.65;55.64
9538;BME280;4807;48.024;11.726;2023-03-11T07:55:42;94044.56;;;0.80;55.40
9538;BME280;4807;48.024;11.726;2023-03-11T07:58:51;94041.69;;;1.30;55.00
9538;BME280;4807;48.024;11.726;2023-03-11T08:02:01;94039.94;;;1.06;56.91
9538;BME280;4807;48.024;11.726;2023-03-11T08:05:11;94041.28;;;0.86;57.34
9538;BME280;4807;48.024;11.726;2023-03-11T08:08:20;94041.94;;;0.80;57.75
9538;BME280;4807;48.024;11.726;2023-03-11T08:11:30;94036.50;;;0.65;56.69
9538;BME280;4807;48.024;11.726;2023-03-11T08:14:38;94035.38;;;0.84;58.02
9538;BME280;4807;48.024;11.726;2023-03-11T08:17:48;94046.34;;;1.04;56.85
9538;BME280;4807;48.024;11.726;2023-03-11T08:20:56;94055.00;;;1.37;57.33
9538;BME280;4807;48.024;11.726;2023-03-11T08:24:06;94046.44;;;1.51;55.70
9538;BME280;4807;48.024;11.726;2023-03-11T08:27:15;94045.13;;;1.39;57.51
9538;BME280;4807;48.024;11.726;2023-03-11T08:30:23;94056.91;;;1.59;56.26
9538;BME280;4807;48.024;11.726;2023-03-11T08:33:36;94060.53;;;1.97;54.62
9538;BME280;4807;48.024;11.726;2023-03-11T08:36:46;94061.16;;;2.38;54.39
9538;BME280;4807;48.024;11.726;2023-03-11T08:39:54;94067.06;;;2.40;54.41
9538;BME280;4807;48.024;11.726;2023-03-11T08:43:03;94059.09;;;1.95;54.01
9538;BME280;4807;48.024;11.726;2023-03-11T08:46:17;94054.75;;;1.63;54.84
9538;BME280;4807;48.024;11.726;2023-03-11T08:49:29;94060.50;;;1.58;56.65
9538;BME280;4807;48.024;11.726;2023-03-11T08:52:37;94067.63;;;1.88;57.15
9538;BME280;4807;48.024;11.726;2023-03-11T08:55:46;94063.41;;;1.71;56.03
9538;BME280;4807;48.024;11.726;2023-03-11T08:58:54;94060.03;;;2.02;55.27
9538;BME280;4807;48.024;11.726;2023-03-11T09:02:03;94066.00;;;1.79;58.72
9538;BME280;4807;48.024;11.726;2023-03-11T09:05:13;94082.13;;;1.68;57.66
9538;BME280;4807;48.024;11.726;2023-03-11T09:08:21;94070.28;;;1.72;57.57
9538;BME280;4807;48.024;11.726;2023-03-11T09:11:29;94070.66;;;1.61;57.35
9538;BME280;4807;48.024;11.726;2023-03-11T09:14:38;94067.25;;;1.52;57.10
9538;BME280;4807;48.024;11.726;2023-03-11T09:17:46;94073.13;;;1.46;56.86
9538;BME280;4807;48.024;11.726;2023-03-11T09:20:55;94068.31;;;1.82;57.87
9538;BME280;4807;48.024;11.726;2023-03-11T09:24:06;94065.78;;;1.50;55.83
9538;BME280;4807;48.024;11.726;2023-03-11T09:27:15;94080.84;;;1.48;56.21
9538;BME280;4807;48.024;11.726;2023-03-11T09:30:23;94078.31;;;1.71;58.27
9538;BME280;4807;48.024;11.726;2023-03-11T09:33:36;94075.16;;;1.91;59.55
9538;BME280;4807;48.024;11.726;2023-03-11T09:36:46;94066.94;;;1.39;57.69
9538;BME280;4807;48.024;11.726;2023-03-11T09:39:55;94067.38;;;1.59;56.58
9538;BME280;4807;48.024;11.726;2023-03-11T09:43:17;94080.84;;;2.42;53.36
9538;BME280;4807;48.024;11.726;2023-03-11T09:46:59;94081.13;;;2.47;52.24
9538;BME280;4807;48.024;11.726;2023-03-11T09:50:21;94087.41;;;2.38;53.25
9538;BME280;4807;48.024;11.726;2023-03-11T09:53:40;94093.53;;;2.30;52.20
9538;BME280;4807;48.024;11.726;2023-03-11T09:56:50;94085.41;;;2.48;52.80
9538;BME280;4807;48.024;11.726;2023-03-11T10:00:00;94091.00;;;2.45;52.09
9538;BME280;4807;48.024;11.726;2023-03-11T10:03:32;94105.84;;;2.92;51.01
9538;BME280;4807;48.024;11.726;2023-03-11T10:06:45;94097.41;;;2.74;49.82
9538;BME280;4807;48.024;11.726;2023-03-11T10:09:57;94098.47;;;3.10;49.21
9538;BME280;4807;48.024;11.726;2023-03-11T10:13:14;94108.22;;;3.24;51.57
9538;BME280;4807;48.024;11.726;2023-03-11T10:16:37;94111.38;;;3.20;48.42
9538;BME280;4807;48.024;11.726;2023-03-11T10:19:57;94100.16;;;3.63;48.82
9538;BME280;4807;48.024;11.726;2023-03-11T10:23:21;94113.16;;;3.94;48.35
9538;BME280;4807;48.024;11.726;2023-03-11T10:26:36;94110.50;;;3.65;47.52
9538;BME280;4807;48.024;11.726;2023-03-11T10:29:57;94114.34;;;3.17;48.87
9538;BME280;4807;48.024;11.726;2023-03-11T10:33:19;94107.75;;;2.98;51.13
9538;BME280;4807;48.024;11.726;2023-03-11T10:36:38;94099.56;;;3.38;47.58
9538;BME280;4807;48.024;11.726;2023-03-11T10:39:48;94109.41;;;3.74;47.90
9538;BME280;4807;48.024;11.726;2023-03-11T10:43:02;94115.13;;;3.77;49.76
9538;BME280;4807;48.024;11.726;2023-03-11T10:46:18;94112.78;;;3.08;48.74
9538;BME280;4807;48.024;11.726;2023-03-11T10:49:28;94106.72;;;2.53;47.97
9538;BME280;4807;48.024;11.726;2023-03-11T10:53:03;94123.94;;;2.87;51.26
9538;BME280;4807;48.024;11.726;2023-03-11T10:56:26;94113.63;;;2.77;51.10
9538;BME280;4807;48.024;11.726;2023-03-11T10:59:48;94121.66;;;2.84;50.21
9538;BME280;4807;48.024;11.726;2023-03-11T11:02:57;94114.53;;;2.92;49.25
9538;BME280;4807;48.024;11.726;2023-03-11T11:06:18;94116.56;;;2.59;47.98
9538;BME280;4807;48.024;11.726;2023-03-11T11:09:27;94117.22;;;3.07;49.38
9538;BME280;4807;48.024;11.726;2023-03-11T11:12:50;94115.19;;;3.55;47.37
9538;BME280;4807;48.024;11.726;2023-03-11T11:16:03;94105.84;;;3.15;50.09
9538;BME280;4807;48.024;11.726;2023-03-11T11:19:13;94117.56;;;3.04;48.15
9538;BME280;4807;48.024;11.726;2023-03-11T11:22:23;94108.34;;;3.08;49.45
9538;BME280;4807;48.024;11.726;2023-03-11T11:25:36;94113.22;;;3.34;48.05
9538;BME280;4807;48.024;11.726;2023-03-11T11:29:11;94104.34;;;3.35;49.11
9538;BME280;4807;48.024;11.726;2023-03-11T11:32:27;94100.47;;;3.45;48.33
9538;BME280;4807;48.024;11.726;2023-03-11T11:35:50;94109.03;;;3.02;46.43
9538;BME280;4807;48.024;11.726;2023-03-11T11:39:00;94115.28;;;3.01;46.32
9538;BME280;4807;48.024;11.726;2023-03-11T11:42:13;94108.16;;;2.87;47.69
9538;BME280;4807;48.024;11.726;2023-03-11T11:45:31;94108.03;;;3.26;47.66
9538;BME280;4807;48.024;11.726;2023-03-11T11:48:53;94102.50;;;3.21;48.17
9538;BME280;4807;48.024;11.726;2023-03-11T11:52:10;94092.88;;;3.65;46.12
9538;BME280;4807;48.024;11.726;2023-03-11T11:55:23;94106.59;;;3.75;45.85
9538;BME280;4807;48.024;11.726;2023-03-11T11:58:34;94106.00;;;4.03;46.45
9538;BME280;4807;48.024;11.726;2023-03-11T12:01:55;94100.06;;;4.01;44.96
9538;BME280;4807;48.024;11.726;2023-03-11T12:05:10;94098.34;;;3.93;44.84
9538;BME280;4807;48.024;11.726;2023-03-11T12:08:33;94096.78;;;3.69;45.47
9538;BME280;4807;48.024;11.726;2023-03-11T12:11:52;94086.00;;;3.79;44.51
9538;BME280;4807;48.024;11.726;2023-03-11T12:15:11;94077.44;;;4.06;43.98
9538;BME280;4807;48.024;11.726;2023-03-11T12:18:29;94079.81;;;4.01;48.28
9538;BME280;4807;48.024;11.726;2023-03-11T12:26:20;94071.47;;;3.83;43.83
9538;BME280;4807;48.024;11.726;2023-03-11T12:29:33;94084.44;;;3.84;44.68
9538;BME280;4807;48.024;11.726;2023-03-11T12:32:48;94079.28;;;3.91;43.51
9538;BME280;4807;48.024;11.726;2023-03-11T12:36:00;94077.38;;;3.85;44.46
9538;BME280;4807;48.024;11.726;2023-03-11T12:39:23;94079.09;;;3.78;44.00
9538;BME280;4807;48.024;11.726;2023-03-11T12:42:38;94066.94;;;3.92;47.08
9538;BME280;4807;48.024;11.726;2023-03-11T12:45:49;94060.22;;;3.89;45.35
9538;BME280;4807;48.024;11.726;2023-03-11T12:49:11;94068.91;;;3.75;45.35
9538;BME280;4807;48.024;11.726;2023-03-11T12:52:29;94075.38;;;4.02;48.62
9538;BME280;4807;48.024;11.726;2023-03-11T12:55:39;94070.91;;;4.17;47.01
9538;BME280;4807;48.024;11.726;2023-03-11T12:59:44;94065.28;;;3.76;45.80
9538;BME280;4807;48.024;11.726;2023-03-11T13:03:38;94053.28;;;3.59;47.05
9538;BME280;4807;48.024;11.726;2023-03-11T13:07:37;94060.22;;;3.89;46.44
9538;BME280;4807;48.024;11.726;2023-03-11T13:10:49;94048.91;;;4.25;45.91
9538;BME280;4807;48.024;11.726;2023-03-11T13:17:36;94061.34;;;4.45;45.55
9538;BME280;4807;48.024;11.726;2023-03-11T13:20:51;94063.81;;;4.17;45.39
9538;BME280;4807;48.024;11.726;2023-03-11T13:24:39;94061.84;;;3.61;45.99
9538;BME280;4807;48.024;11.726;2023-03-11T13:27:56;94061.66;;;3.77;44.89
9538;BME280;4807;48.024;11.726;2023-03-11T13:31:33;94050.47;;;4.19;44.80
9538;BME280;4807;48.024;11.726;2023-03-11T13:34:56;94061.47;;;3.93;45.94
9538;BME280;4807;48.024;11.726;2023-03-11T13:38:33;94071.88;;;4.45;45.04
9538;BME280;4807;48.024;11.726;2023-03-11T13:41:46;94070.84;;;4.10;43.96
9538;BME280;4807;48.024;11.726;2023-03-11T13:44:57;94084.25;;;4.45;46.36
9538;BME280;4807;48.024;11.726;2023-03-11T13:48:13;94071.38;;;4.56;43.59
9538;BME280;4807;48.024;11.726;2023-03-11T13:51:34;94074.53;;;4.31;42.86
9538;BME280;4807;48.024;11.726;2023-03-11T13:54:47;94083.84;;;3.97;44.69
9538;BME280;4807;48.024;11.726;2023-03-11T13:57:57;94084.72;;;4.19;44.89
9538;BME280;4807;48.024;11.726;2023-03-11T14:01:16;94085.81;;;3.95;46.47
9538;BME280;4807;48.024;11.726;2023-03-11T14:04:28;94089.28;;;3.81;45.16
9538;BME280;4807;48.024;11.726;2023-03-11T14:07:37;94093.53;;;3.82;47.22
9538;BME280;4807;48.024;11.726;2023-03-11T14:10:51;94092.53;;;3.83;45.83
9538;BME280;4807;48.024;11.726;2023-03-11T14:14:01;94093.25;;;3.92;43.79
9538;BME280;4807;48.024;11.726;2023-03-11T14:17:15;94088.28;;;4.11;46.84
9538;BME280;4807;48.024;11.726;2023-03-11T14:20:24;94098.63;;;3.98;45.38
9538;BME280;4807;48.024;11.726;2023-03-11T14:23:39;94104.53;;;4.00;44.50
9538;BME280;4807;48.024;11.726;2023-03-11T14:26:49;94088.22;;;4.41;44.07
9538;BME280;4807;48.024;11.726;2023-03-11T14:30:01;94100.22;;;4.43;44.30
9538;BME280;4807;48.024;11.726;2023-03-11T14:33:21;94104.22;;;4.54;46.70
9538;BME280;4807;48.024;11.726;2023-03-11T14:36:39;94095.91;;;4.21;43.72
9538;BME280;4807;48.024;11.726;2023-03-11T14:39:48;94101.25;;;3.98;44.50
9538;BME280;4807;48.024;11.726;2023-03-11T14:43:03;94099.44;;;4.28;46.14
9538;BME280;4807;48.024;11.726;2023-03-11T14:46:22;94098.63;;;4.28;46.10
9538;BME280;4807;48.024;11.726;2023-03-11T14:49:33;94098.53;;;4.06;44.67
9538;BME280;4807;48.024;11.726;2023-03-11T14:52:47;94095.28;;;4.04;43.36
9538;BME280;4807;48.024;11.726;2023-03-11T14:56:01;94099.88;;;4.32;45.96
9538;BME280;4807;48.024;11.726;2023-03-11T14:59:15;94112.69;;;4.35;44.94
9538;BME280;4807;48.024;11.726;2023-03-11T15:02:41;94118.78;;;3.91;45.08
9538;BME280;4807;48.024;11.726;2023-03-11T15:05:55;94129.69;;;3.88;44.62
9538;BME280;4807;48.024;11.726;2023-03-11T15:09:10;94120.41;;;3.77;45.26
9538;BME280;4807;48.024;11.726;2023-03-11T15:12:33;94128.94;;;3.79;46.15
9538;BME280;4807;48.024;11.726;2023-03-11T15:15:43;94133.28;;;3.72;48.39
9538;BME280;4807;48.024;11.726;2023-03-11T15:18:53;94132.56;;;3.78;47.30
9538;BME280;4807;48.024;11.726;2023-03-11T15:22:22;94133.97;;;3.89;47.64
9538;BME280;4807;48.024;11.726;2023-03-11T15:25:35;94135.69;;;3.97;46.77
9538;BME280;4807;48.024;11.726;2023-03-11T15:28:44;94149.28;;;4.00;46.22
9538;BME280;4807;48.024;11.726;2023-03-11T15:31:52;94145.75;;;3.93;45.78
9538;BME280;4807;48.024;11.726;2023-03-11T15:35:13;94146.56;;;4.08;44.69
9538;BME280;4807;48.024;11.726;2023-03-11T15:38:24;94144.59;;;4.10;46.24
9538;BME280;4807;48.024;11.726;2023-03-11T15:41:46;94157.41;;;4.13;46.69
9538;BME280;4807;48.024;11.726;2023-03-11T15:45:15;94151.75;;;4.02;44.67
9538;BME280;4807;48.024;11.726;2023-03-11T15:48:24;94159.09;;;3.92;46.99
9538;BME280;4807;48.024;11.726;2023-03-11T15:51:33;94161.56;;;3.93;48.60
9538;BME280;4807;48.024;11.726;2023-03-11T15:54:43;94162.06;;;3.74;46.77
9538;BME280;4807;48.024;11.726;2023-03-11T15:58:05;94160.22;;;3.60;47.92
9538;BME280;4807;48.024;11.726;2023-03-11T16:01:14;94162.91;;;3.52;48.01
9538;BME280;4807;48.024;11.726;2023-03-11T16:04:25;94176.13;;;3.43;48.36
9538;BME280;4807;48.024;11.726;2023-03-11T16:07:33;94172.03;;;3.41;47.58
9538;BME280;4807;48.024;11.726;2023-03-11T16:10:47;94179.75;;;3.42;50.73
9538;BME280;4807;48.024;11.726;2023-03-11T16:13:56;94190.94;;;3.44;52.24
9538;BME280;4807;48.024;11.726;2023-03-11T16:17:04;94184.94;;;3.51;52.00
9538;BME280;4807;48.024;11.726;2023-03-11T16:20:13;94190.53;;;3.56;51.47
9538;BME280;4807;48.024;11.726;2023-03-11T16:23:24;94189.97;;;3.60;50.04
9538;BME280;4807;48.024;11.726;2023-03-11T16:26:35;94185.25;;;3.56;49.76
9538;BME280;4807;48.024;11.726;2023-03-11T16:29:44;94176.44;;;3.49;50.64
9538;BME280;4807;48.024;11.726;2023-03-11T16:32:53;94173.66;;;3.42;51.25
9538;BME280;4807;48.024;11.726;2023-03-11T16:36:03;94184.56;;;3.39;51.48
9538;BME280;4807;48.024;11.726;2023-03-11T16:39:12;94187.72;;;3.34;52.68
9538;BME280;4807;48.024;11.726;2023-03-11T16:42:22;94194.31;;;3.30;51.31
9538;BME280;4807;48.024;11.726;2023-03-11T16:45:31;94194.88;;;3.18;51.95
9538;BME280;4807;48.024;11.726;2023-03-11T16:48:39;94213.19;;;3.11;52.25
9538;BME280;4807;48.024;11.726;2023-03-11T16:51:47;94222.75;;;3.04;52.21
9538;BME280;4807;48.024;11.726;2023-03-11T16:54:58;94221.97;;;2.95;52.81
9538;BME280;4807;48.024;11.726;2023-03-11T16:58:08;94247.63;;;2.93;53.18
9538;BME280;4807;48.024;11.726;2023-03-11T17:01:16;94245.84;;;2.86;52.66
9538;BME280;4807;48.024;11.726;2023-03-11T17:04:27;94243.41;;;2.76;52.79
9538;BME280;4807;48.024;11.726;2023-03-11T17:07:36;94250.56;;;2.59;52.53
9538;BME280;4807;48.024;11.726;2023-03-11T17:10:46;94254.19;;;2.58;53.84
9538;BME280;4807;48.024;11.726;2023-03-11T17:13:56;94250.59;;;2.51;53.69
9538;BME280;4807;48.024;11.726;2023-03-11T17:17:22;94254.22;;;2.42;52.83
9538;BME280;4807;48.024;11.726;2023-03-11T17:20:30;94263.56;;;2.45;53.76
9538;BME280;4807;48.024;11.726;2023-03-11T17:23:39;94267.69;;;2.39;53.35
9538;BME280;4807;48.024;11.726;2023-03-11T17:26:48;94281.00;;;2.29;53.74
9538;BME280;4807;48.024;11.726;2023-03-11T17:29:58;94279.72;;;2.25;54.72
9538;BME280;4807;48.024;11.726;2023-03-11T17:33:07;94288.41;;;2.26;54.45
9538;BME280;4807;48.024;11.726;2023-03-11T17:36:17;94303.50;;;2.24;54.89
9538;BME280;4807;48.024;11.726;2023-03-11T17:39:25;94313.34;;;2.22;54.33
9538;BME280;4807;48.024;11.726;2023-03-11T17:42:34;94316.13;;;2.20;55.12